sensor_id;sensor_type;location;lat;lon;timestamp;P1;P2;P0
65361;PMS5003;51961;54.960;73.462;2022-09-19T00:02:41;3.33;2.00;0.00
65361;PMS5003;51961;54.960;73.462;2022-09-19T00:05:48;4.00;4.00;0.00
65361;PMS5003;51961;54.960;73.462;2022-09-19T00:09:00;4.00;4.00;0.00
65361;PMS5003;51961;54.960;73.462;2022-09-19T00:12:13;2.00;2.00;0.00
65361;PMS5003;51961;54.960;73.462;2022-09-19T00:15:16;4.00;4.00;0.00
65361;PMS5003;51961;54.960;73.462;2022-09-19T00:18:18;3.00;3.00;0.00
65361;PMS5003;51961;54.960;73.462;2022-09-19T00:21:24;4.00;3.00;0.00
65361;PMS5003;51961;54.960;73.462;2022-09-19T00:24:31;4.00;4.00;0.00
65361;PMS5003;51961;54.960;73.462;2022-09-19T00:27:50;3.67;3.67;0.00
65361;PMS5003;51961;54.960;73.462;2022-09-19T00:30:56;4.00;3.00;0.00
65361;PMS5003;51961;54.960;73.462;2022-09-19T00:34:10;3.00;2.00;0.00
65361;PMS5003;51961;54.960;73.462;2022-09-19T00:37:23;4.00;2.00;0.00
65361;PMS5003;51961;54.960;73.462;2022-09-19T00:40:25;4.00;3.00;0.00
65361;PMS5003;51961;54.960;73.462;2022-09-19T00:49:56;3.00;3.00;0.00
65361;PMS5003;51961;54.960;73.462;2022-09-19T00:53:00;4.00;4.00;0.00
65361;PMS5003;51961;54.960;73.462;2022-09-19T00:56:11;4.67;4.00;0.00
65361;PMS5003;51961;54.960;73.462;2022-09-19T00:59:14;2.00;2.00;0.00
65361;PMS5003;51961;54.960;73.462;2022-09-19T01:02:26;3.00;3.00;0.00
65361;PMS5003;51961;54.960;73.462;2022-09-19T01:05:39;4.00;4.00;0.00
65361;PMS5003;51961;54.960;73.462;2022-09-19T01:08:55;4.00;4.00;0.00
65361;PMS5003;51961;54.960;73.462;2022-09-19T01:12:25;4.00;4.00;0.00
65361;PMS5003;51961;54.960;73.462;2022-09-19T01:15:39;4.00;4.00;0.00
65361;PMS5003;51961;54.960;73.462;2022-09-19T01:18:57;4.00;4.00;0.00
65361;PMS5003;51961;54.960;73.462;2022-09-19T01:22:26;4.00;3.00;0.00
65361;PMS5003;51961;54.960;73.462;2022-09-19T01:32:01;4.00;3.00;1.00
65361;PMS5003;51961;54.960;73.462;2022-09-19T01:35:14;4.00;3.00;0.00
65361;PMS5003;51961;54.960;73.462;2022-09-19T01:38:21;5.00;4.33;1.00
65361;PMS5003;51961;54.960;73.462;2022-09-19T01:41:27;4.00;4.00;1.00
65361;PMS5003;51961;54.960;73.462;2022-09-19T01:44:30;4.00;4.00;1.00
65361;PMS5003;51961;54.960;73.462;2022-09-19T01:47:41;4.00;4.00;0.00
65361;PMS5003;51961;54.960;73.462;2022-09-19T01:51:01;4.00;3.33;0.00
65361;PMS5003;51961;54.960;73.462;2022-09-19T02:04:14;5.00;5.00;2.00
65361;PMS5003;51961;54.960;73.462;2022-09-19T02:07:23;6.00;5.00;2.00
65361;PMS5003;51961;54.960;73.462;2022-09-19T02:10:36;5.67;5.00;2.00
65361;PMS5003;51961;54.960;73.462;2022-09-19T02:13:42;5.00;5.00;3.00
65361;PMS5003;51961;54.960;73.462;2022-09-19T02:16:49;5.00;4.67;2.00
65361;PMS5003;51961;54.960;73.462;2022-09-19T02:19:57;11.25;10.50;5.00
65361;PMS5003;51961;54.960;73.462;2022-09-19T02:23:15;13.75;12.00;5.00
65361;PMS5003;51961;54.960;73.462;2022-09-19T02:26:24;12.25;9.00;3.00
65361;PMS5003;51961;54.960;73.462;2022-09-19T02:29:30;17.00;9.75;5.00
65361;PMS5003;51961;54.960;73.462;2022-09-19T02:32:42;25.25;17.25;8.75
65361;PMS5003;51961;54.960;73.462;2022-09-19T02:45:37;5.00;5.00;3.67
65361;PMS5003;51961;54.960;73.462;2022-09-19T02:49:02;7.75;5.50;3.00
65361;PMS5003;51961;54.960;73.462;2022-09-19T02:52:18;6.00;6.00;3.00
65361;PMS5003;51961;54.960;73.462;2022-09-19T02:55:41;4.25;4.25;3.00
65361;PMS5003;51961;54.960;73.462;2022-09-19T02:59:16;5.00;4.00;2.00
65361;PMS5003;51961;54.960;73.462;2022-09-19T03:02:35;5.50;5.00;2.00
65361;PMS5003;51961;54.960;73.462;2022-09-19T03:05:40;6.50;6.50;3.00
65361;PMS5003;51961;54.960;73.462;2022-09-19T03:08:42;6.00;5.50;2.00
65361;PMS5003;51961;54.960;73.462;2022-09-19T03:11:53;5.50;4.50;2.00
65361;PMS5003;51961;54.960;73.462;2022-09-19T03:15:03;5.75;4.00;2.75
65361;PMS5003;51961;54.960;73.462;2022-09-19T03:18:10;7.00;6.00;3.67
65361;PMS5003;51961;54.960;73.462;2022-09-19T03:21:18;4.75;4.25;2.00
65361;PMS5003;51961;54.960;73.462;2022-09-19T03:24:22;6.00;6.00;2.33
65361;PMS5003;51961;54.960;73.462;2022-09-19T03:27:24;6.00;4.00;2.00
65361;PMS5003;51961;54.960;73.462;2022-09-19T03:30:31;7.00;5.67;2.00
65361;PMS5003;51961;54.960;73.462;2022-09-19T03:33:42;12.67;9.00;6.00
65361;PMS5003;51961;54.960;73.462;2022-09-19T03:36:48;9.33;5.00;3.00
65361;PMS5003;51961;54.960;73.462;2022-09-19T03:39:59;6.75;6.75;2.00
65361;PMS5003;51961;54.960;73.462;2022-09-19T03:43:01;10.00;10.00;6.50
65361;PMS5003;51961;54.960;73.462;2022-09-19T03:46:04;14.00;14.00;7.00
65361;PMS5003;51961;54.960;73.462;2022-09-19T03:49:07;21.75;18.50;13.75
65361;PMS5003;51961;54.960;73.462;2022-09-19T03:52:10;19.00;17.00;9.00
65361;PMS5003;51961;54.960;73.462;2022-09-19T03:55:14;17.75;16.00;6.00
65361;PMS5003;51961;54.960;73.462;2022-09-19T03:58:17;16.00;13.00;4.25
65361;PMS5003;51961;54.960;73.462;2022-09-19T04:01:22;17.75;15.75;7.50
65361;PMS5003;51961;54.960;73.462;2022-09-19T04:04:28;13.00;10.50;4.00
65361;PMS5003;51961;54.960;73.462;2022-09-19T04:07:32;8.75;7.25;3.00
65361;PMS5003;51961;54.960;73.462;2022-09-19T04:10:45;9.00;6.00;2.75
65361;PMS5003;51961;54.960;73.462;2022-09-19T04:13:48;8.00;6.00;3.00
65361;PMS5003;51961;54.960;73.462;2022-09-19T04:17:03;9.50;8.50;4.00
65361;PMS5003;51961;54.960;73.462;2022-09-19T04:20:13;7.00;5.25;1.00
65361;PMS5003;51961;54.960;73.462;2022-09-19T04:23:30;6.00;6.00;3.25
65361;PMS5003;51961;54.960;73.462;2022-09-19T04:26:46;7.00;6.25;4.00
65361;PMS5003;51961;54.960;73.462;2022-09-19T04:29:58;18.00;14.25;6.75
65361;PMS5003;51961;54.960;73.462;2022-09-19T04:33:03;18.00;14.25;6.00
65361;PMS5003;51961;54.960;73.462;2022-09-19T04:36:17;21.00;15.00;6.00
65361;PMS5003;51961;54.960;73.462;2022-09-19T04:39:21;14.25;10.00;3.00
65361;PMS5003;51961;54.960;73.462;2022-09-19T04:42:24;7.00;6.00;3.00
65361;PMS5003;51961;54.960;73.462;2022-09-19T04:45:26;6.75;6.00;3.00
65361;PMS5003;51961;54.960;73.462;2022-09-19T04:48:58;6.75;5.25;2.00
65361;PMS5003;51961;54.960;73.462;2022-09-19T04:52:11;7.75;6.75;3.00
65361;PMS5003;51961;54.960;73.462;2022-09-19T04:55:16;5.00;3.50;2.00
65361;PMS5003;51961;54.960;73.462;2022-09-19T04:58:19;8.00;4.00;2.00
65361;PMS5003;51961;54.960;73.462;2022-09-19T05:01:21;8.00;5.25;3.00
65361;PMS5003;51961;54.960;73.462;2022-09-19T05:04:26;10.00;8.00;4.00
65361;PMS5003;51961;54.960;73.462;2022-09-19T05:07:28;8.00;7.00;4.00
65361;PMS5003;51961;54.960;73.462;2022-09-19T05:10:37;3.67;3.00;1.00
65361;PMS5003;51961;54.960;73.462;2022-09-19T05:13:40;5.00;4.25;2.00
65361;PMS5003;51961;54.960;73.462;2022-09-19T05:16:57;7.00;6.00;1.00
65361;PMS5003;51961;54.960;73.462;2022-09-19T05:19:59;5.50;4.00;1.00
65361;PMS5003;51961;54.960;73.462;2022-09-19T05:23:03;6.00;5.50;1.00
65361;PMS5003;51961;54.960;73.462;2022-09-19T05:26:13;7.00;4.00;2.00
65361;PMS5003;51961;54.960;73.462;2022-09-19T05:29:22;5.50;4.00;2.00
65361;PMS5003;51961;54.960;73.462;2022-09-19T05:32:39;3.25;3.00;1.00
65361;PMS5003;51961;54.960;73.462;2022-09-19T05:36:05;4.33;4.00;1.00
65361;PMS5003;51961;54.960;73.462;2022-09-19T05:39:36;8.25;7.25;3.00
65361;PMS5003;51961;54.960;73.462;2022-09-19T05:42:57;5.00;5.00;1.00
65361;PMS5003;51961;54.960;73.462;2022-09-19T05:46:04;5.00;5.00;1.00
65361;PMS5003;51961;54.960;73.462;2022-09-19T05:49:12;4.00;4.00;0.00
65361;PMS5003;51961;54.960;73.462;2022-09-19T05:52:14;3.00;3.00;1.00
65361;PMS5003;51961;54.960;73.462;2022-09-19T05:55:40;2.00;2.00;1.00
65361;PMS5003;51961;54.960;73.462;2022-09-19T05:59:13;4.25;4.00;0.00
65361;PMS5003;51961;54.960;73.462;2022-09-19T06:02:28;4.00;3.00;0.00
65361;PMS5003;51961;54.960;73.462;2022-09-19T06:05:39;4.00;3.00;0.00
65361;PMS5003;51961;54.960;73.462;2022-09-19T06:08:41;4.00;4.00;0.00
65361;PMS5003;51961;54.960;73.462;2022-09-19T06:11:47;4.33;2.67;0.00
65361;PMS5003;51961;54.960;73.462;2022-09-19T06:14:50;6.75;6.00;3.00
65361;PMS5003;51961;54.960;73.462;2022-09-19T06:17:58;4.50;4.00;2.00
65361;PMS5003;51961;54.960;73.462;2022-09-19T06:21:15;5.33;5.00;1.00
65361;PMS5003;51961;54.960;73.462;2022-09-19T06:24:20;6.50;6.00;1.25
65361;PMS5003;51961;54.960;73.462;2022-09-19T06:27:23;7.00;6.00;2.00
65361;PMS5003;51961;54.960;73.462;2022-09-19T06:30:26;7.00;6.00;2.00
65361;PMS5003;51961;54.960;73.462;2022-09-19T06:33:57;8.75;6.25;3.25
65361;PMS5003;51961;54.960;73.462;2022-09-19T06:37:06;4.00;4.00;2.00
65361;PMS5003;51961;54.960;73.462;2022-09-19T06:40:09;2.25;2.00;0.00
65361;PMS5003;51961;54.960;73.462;2022-09-19T06:43:36;3.67;3.67;1.00
65361;PMS5003;51961;54.960;73.462;2022-09-19T06:46:59;5.00;5.00;1.00
65361;PMS5003;51961;54.960;73.462;2022-09-19T06:50:24;2.00;2.00;0.67
65361;PMS5003;51961;54.960;73.462;2022-09-19T06:53:33;5.50;5.00;1.00
65361;PMS5003;51961;54.960;73.462;2022-09-19T06:56:45;4.25;4.25;1.00
65361;PMS5003;51961;54.960;73.462;2022-09-19T06:59:54;8.00;7.25;3.75
65361;PMS5003;51961;54.960;73.462;2022-09-19T07:02:58;13.75;8.75;3.75
65361;PMS5003;51961;54.960;73.462;2022-09-19T07:06:03;10.50;7.75;3.50
65361;PMS5003;51961;54.960;73.462;2022-09-19T07:09:12;7.00;5.00;2.00
65361;PMS5003;51961;54.960;73.462;2022-09-19T07:12:19;2.75;2.25;0.00
65361;PMS5003;51961;54.960;73.462;2022-09-19T07:15:23;3.00;2.00;0.00
65361;PMS5003;51961;54.960;73.462;2022-09-19T07:18:36;7.33;5.67;2.67
65361;PMS5003;51961;54.960;73.462;2022-09-19T07:22:08;7.00;7.00;4.00
65361;PMS5003;51961;54.960;73.462;2022-09-19T07:25:35;4.00;4.00;1.25
65361;PMS5003;51961;54.960;73.462;2022-09-19T07:28:40;2.00;2.00;0.00
65361;PMS5003;51961;54.960;73.462;2022-09-19T07:31:42;3.00;3.00;0.00
65361;PMS5003;51961;54.960;73.462;2022-09-19T07:34:45;3.75;3.75;0.00
65361;PMS5003;51961;54.960;73.462;2022-09-19T07:37:49;6.00;5.00;1.00
65361;PMS5003;51961;54.960;73.462;2022-09-19T07:41:20;3.75;3.00;1.00
65361;PMS5003;51961;54.960;73.462;2022-09-19T07:44:36;4.50;4.00;2.00
65361;PMS5003;51961;54.960;73.462;2022-09-19T07:48:09;4.75;4.00;2.00
65361;PMS5003;51961;54.960;73.462;2022-09-19T07:51:31;8.00;8.00;4.00
65361;PMS5003;51961;54.960;73.462;2022-09-19T07:54:34;6.00;6.00;3.00
65361;PMS5003;51961;54.960;73.462;2022-09-19T07:57:37;6.00;5.00;2.00
65361;PMS5003;51961;54.960;73.462;2022-09-19T08:00:41;4.00;3.00;2.00
65361;PMS5003;51961;54.960;73.462;2022-09-19T08:03:46;10.50;8.00;2.00
65361;PMS5003;51961;54.960;73.462;2022-09-19T08:06:57;7.00;4.00;2.00
65361;PMS5003;51961;54.960;73.462;2022-09-19T08:10:00;6.00;4.00;2.00
65361;PMS5003;51961;54.960;73.462;2022-09-19T08:13:08;3.00;3.00;0.00
65361;PMS5003;51961;54.960;73.462;2022-09-19T08:16:11;4.00;4.00;0.00
65361;PMS5003;51961;54.960;73.462;2022-09-19T08:19:14;5.75;4.00;1.00
65361;PMS5003;51961;54.960;73.462;2022-09-19T08:22:19;8.50;6.75;3.00
65361;PMS5003;51961;54.960;73.462;2022-09-19T08:25:44;7.50;6.00;3.00
65361;PMS5003;51961;54.960;73.462;2022-09-19T08:28:51;4.00;3.00;1.00
65361;PMS5003;51961;54.960;73.462;2022-09-19T08:31:57;4.00;4.00;1.00
65361;PMS5003;51961;54.960;73.462;2022-09-19T08:35:06;2.00;2.00;0.00
65361;PMS5003;51961;54.960;73.462;2022-09-19T08:38:11;3.50;3.50;2.00
65361;PMS5003;51961;54.960;73.462;2022-09-19T08:41:37;6.00;6.00;4.00
65361;PMS5003;51961;54.960;73.462;2022-09-19T08:47:57;9.00;7.50;2.50
65361;PMS5003;51961;54.960;73.462;2022-09-19T08:51:01;7.00;4.00;1.00
65361;PMS5003;51961;54.960;73.462;2022-09-19T08:54:09;6.00;4.00;1.00
65361;PMS5003;51961;54.960;73.462;2022-09-19T08:57:17;4.75;4.00;1.00
65361;PMS5003;51961;54.960;73.462;2022-09-19T09:00:23;8.50;6.75;2.75
65361;PMS5003;51961;54.960;73.462;2022-09-19T09:03:41;4.00;4.00;1.25
65361;PMS5003;51961;54.960;73.462;2022-09-19T09:10:24;9.67;7.67;2.67
65361;PMS5003;51961;54.960;73.462;2022-09-19T09:13:39;12.75;7.75;3.00
65361;PMS5003;51961;54.960;73.462;2022-09-19T09:20:06;8.00;6.00;2.00
65361;PMS5003;51961;54.960;73.462;2022-09-19T09:26:40;5.00;3.50;1.00
65361;PMS5003;51961;54.960;73.462;2022-09-19T09:29:54;5.00;3.00;1.00
65361;PMS5003;51961;54.960;73.462;2022-09-19T09:33:10;5.00;5.00;1.00
65361;PMS5003;51961;54.960;73.462;2022-09-19T09:36:17;10.50;6.75;2.50
65361;PMS5003;51961;54.960;73.462;2022-09-19T09:39:27;7.00;7.00;2.00
65361;PMS5003;51961;54.960;73.462;2022-09-19T09:42:39;5.25;4.00;1.75
65361;PMS5003;51961;54.960;73.462;2022-09-19T09:45:58;5.75;4.00;1.00
65361;PMS5003;51961;54.960;73.462;2022-09-19T09:49:07;9.00;7.50;4.00
65361;PMS5003;51961;54.960;73.462;2022-09-19T10:05:59;5.00;3.50;2.00
65361;PMS5003;51961;54.960;73.462;2022-09-19T10:09:13;6.50;5.75;2.75
65361;PMS5003;51961;54.960;73.462;2022-09-19T10:15:25;7.75;7.75;4.00
65361;PMS5003;51961;54.960;73.462;2022-09-19T10:18:34;9.75;7.00;3.00
65361;PMS5003;51961;54.960;73.462;2022-09-19T10:21:43;12.00;11.00;4.00
65361;PMS5003;51961;54.960;73.462;2022-09-19T10:24:50;12.25;9.25;5.00
65361;PMS5003;51961;54.960;73.462;2022-09-19T10:28:14;13.25;9.25;4.50
65361;PMS5003;51961;54.960;73.462;2022-09-19T10:31:46;6.00;4.50;1.00
65361;PMS5003;51961;54.960;73.462;2022-09-19T10:35:19;7.00;5.00;1.50
65361;PMS5003;51961;54.960;73.462;2022-09-19T10:38:36;5.00;5.00;1.00
65361;PMS5003;51961;54.960;73.462;2022-09-19T10:41:40;10.75;9.50;3.25
65361;PMS5003;51961;54.960;73.462;2022-09-19T10:44:49;8.75;5.75;2.00
65361;PMS5003;51961;54.960;73.462;2022-09-19T10:48:11;15.00;11.25;4.00
65361;PMS5003;51961;54.960;73.462;2022-09-19T10:51:17;17.00;14.00;5.00
65361;PMS5003;51961;54.960;73.462;2022-09-19T10:54:21;18.75;15.25;5.00
65361;PMS5003;51961;54.960;73.462;2022-09-19T10:57:28;19.25;15.50;5.00
65361;PMS5003;51961;54.960;73.462;2022-09-19T11:00:50;13.50;13.25;3.00
65361;PMS5003;51961;54.960;73.462;2022-09-19T11:04:04;12.00;10.00;5.00
65361;PMS5003;51961;54.960;73.462;2022-09-19T11:07:14;12.00;8.00;4.00
65361;PMS5003;51961;54.960;73.462;2022-09-19T11:10:41;11.25;9.00;3.75
65361;PMS5003;51961;54.960;73.462;2022-09-19T11:21:07;18.00;12.00;4.00
65361;PMS5003;51961;54.960;73.462;2022-09-19T11:30:35;8.00;6.00;2.75
65361;PMS5003;51961;54.960;73.462;2022-09-19T11:33:48;8.00;8.00;4.00
65361;PMS5003;51961;54.960;73.462;2022-09-19T11:43:38;9.00;7.75;3.00
65361;PMS5003;51961;54.960;73.462;2022-09-19T11:49:58;9.00;8.50;4.50
65361;PMS5003;51961;54.960;73.462;2022-09-19T11:57:01;12.00;7.00;4.00
65361;PMS5003;51961;54.960;73.462;2022-09-19T12:00:11;7.00;5.50;2.00
65361;PMS5003;51961;54.960;73.462;2022-09-19T12:07:05;6.50;4.00;2.00
65361;PMS5003;51961;54.960;73.462;2022-09-19T12:10:35;6.50;6.50;4.25
65361;PMS5003;51961;54.960;73.462;2022-09-19T12:16:46;7.00;5.00;3.00
65361;PMS5003;51961;54.960;73.462;2022-09-19T12:19:57;8.00;7.00;3.50
65361;PMS5003;51961;54.960;73.462;2022-09-19T12:23:07;11.75;10.25;4.50
65361;PMS5003;51961;54.960;73.462;2022-09-19T12:27:21;18.00;14.75;6.50
65361;PMS5003;51961;54.960;73.462;2022-09-19T12:33:09;29.00;25.33;12.33
65361;PMS5003;51961;54.960;73.462;2022-09-19T12:36:33;24.25;19.50;10.00
65361;PMS5003;51961;54.960;73.462;2022-09-19T12:39:48;18.33;13.00;5.33
65361;PMS5003;51961;54.960;73.462;2022-09-19T12:49:17;21.67;19.00;8.00
65361;PMS5003;51961;54.960;73.462;2022-09-19T12:52:34;19.50;17.00;5.00
65361;PMS5003;51961;54.960;73.462;2022-09-19T12:56:00;20.00;17.00;7.00
65361;PMS5003;51961;54.960;73.462;2022-09-19T12:59:09;22.00;19.33;9.00
65361;PMS5003;51961;54.960;73.462;2022-09-19T13:02:22;23.00;19.00;8.00
65361;PMS5003;51961;54.960;73.462;2022-09-19T13:05:29;20.67;18.00;7.67
65361;PMS5003;51961;54.960;73.462;2022-09-19T13:08:36;17.00;15.00;6.00
65361;PMS5003;51961;54.960;73.462;2022-09-19T13:11:46;15.25;12.00;6.00
65361;PMS5003;51961;54.960;73.462;2022-09-19T13:14:53;20.00;13.75;7.75
65361;PMS5003;51961;54.960;73.462;2022-09-19T13:18:09;21.00;17.50;9.50
65361;PMS5003;51961;54.960;73.462;2022-09-19T13:21:35;20.00;18.00;7.67
65361;PMS5003;51961;54.960;73.462;2022-09-19T13:24:56;21.00;19.00;7.00
65361;PMS5003;51961;54.960;73.462;2022-09-19T13:28:32;19.33;17.00;4.00
65361;PMS5003;51961;54.960;73.462;2022-09-19T13:38:49;18.50;15.00;6.25
65361;PMS5003;51961;54.960;73.462;2022-09-19T13:41:43;18.25;16.25;6.00
65361;PMS5003;51961;54.960;73.462;2022-09-19T13:44:47;17.00;17.00;7.00
65361;PMS5003;51961;54.960;73.462;2022-09-19T13:48:03;18.00;16.50;7.00
65361;PMS5003;51961;54.960;73.462;2022-09-19T13:57:29;18.00;16.00;6.75
65361;PMS5003;51961;54.960;73.462;2022-09-19T14:00:34;18.50;16.00;6.00
65361;PMS5003;51961;54.960;73.462;2022-09-19T14:03:44;18.25;15.00;6.00
65361;PMS5003;51961;54.960;73.462;2022-09-19T14:06:57;20.75;16.00;7.00
65361;PMS5003;51961;54.960;73.462;2022-09-19T14:10:44;17.00;14.00;6.00
65361;PMS5003;51961;54.960;73.462;2022-09-19T14:13:31;16.25;14.00;5.25
65361;PMS5003;51961;54.960;73.462;2022-09-19T14:16:35;16.00;13.00;4.00
65361;PMS5003;51961;54.960;73.462;2022-09-19T14:19:46;13.00;7.00;3.00
65361;PMS5003;51961;54.960;73.462;2022-09-19T14:22:50;8.00;5.75;2.00
65361;PMS5003;51961;54.960;73.462;2022-09-19T14:26:00;9.00;7.00;3.00
65361;PMS5003;51961;54.960;73.462;2022-09-19T14:29:08;12.75;12.00;7.25
65361;PMS5003;51961;54.960;73.462;2022-09-19T14:35:42;17.50;13.00;7.75
65361;PMS5003;51961;54.960;73.462;2022-09-19T14:45:35;14.00;10.75;5.00
65361;PMS5003;51961;54.960;73.462;2022-09-19T14:55:20;16.75;11.00;4.00
65361;PMS5003;51961;54.960;73.462;2022-09-19T14:58:29;19.00;13.00;7.00
65361;PMS5003;51961;54.960;73.462;2022-09-19T15:01:33;17.00;11.25;4.75
65361;PMS5003;51961;54.960;73.462;2022-09-19T15:04:40;18.50;13.25;6.25
65361;PMS5003;51961;54.960;73.462;2022-09-19T15:07:43;21.00;15.25;8.00
65361;PMS5003;51961;54.960;73.462;2022-09-19T15:11:24;22.00;18.50;8.00
65361;PMS5003;51961;54.960;73.462;2022-09-19T15:14:32;24.33;22.00;11.67
65361;PMS5003;51961;54.960;73.462;2022-09-19T15:17:39;25.00;23.00;10.33
65361;PMS5003;51961;54.960;73.462;2022-09-19T15:21:12;24.00;21.00;11.75
65361;PMS5003;51961;54.960;73.462;2022-09-19T15:24:11;24.00;21.00;11.00
65361;PMS5003;51961;54.960;73.462;2022-09-19T15:27:14;22.25;20.00;10.50
65361;PMS5003;51961;54.960;73.462;2022-09-19T15:30:29;25.00;20.00;11.67
65361;PMS5003;51961;54.960;73.462;2022-09-19T15:33:32;23.00;18.00;9.50
65361;PMS5003;51961;54.960;73.462;2022-09-19T15:36:35;22.67;18.00;8.00
65361;PMS5003;51961;54.960;73.462;2022-09-19T15:39:39;21.00;18.00;7.25
65361;PMS5003;51961;54.960;73.462;2022-09-19T15:42:41;21.00;17.00;8.00
65361;PMS5003;51961;54.960;73.462;2022-09-19T15:45:49;21.25;18.00;7.00
65361;PMS5003;51961;54.960;73.462;2022-09-19T15:51:58;19.33;17.33;7.00
65361;PMS5003;51961;54.960;73.462;2022-09-19T15:55:01;20.00;17.00;6.00
65361;PMS5003;51961;54.960;73.462;2022-09-19T15:58:04;21.67;18.00;8.00
65361;PMS5003;51961;54.960;73.462;2022-09-19T16:01:12;20.50;18.00;10.50
65361;PMS5003;51961;54.960;73.462;2022-09-19T16:04:18;19.00;17.67;9.67
65361;PMS5003;51961;54.960;73.462;2022-09-19T16:07:26;20.00;17.00;9.00
65361;PMS5003;51961;54.960;73.462;2022-09-19T16:10:49;21.33;20.00;11.00
65361;PMS5003;51961;54.960;73.462;2022-09-19T16:14:05;23.67;20.00;11.00
65361;PMS5003;51961;54.960;73.462;2022-09-19T16:17:12;21.00;19.00;10.33
65361;PMS5003;51961;54.960;73.462;2022-09-19T16:23:43;23.00;21.33;11.00
65361;PMS5003;51961;54.960;73.462;2022-09-19T16:26:50;22.33;20.33;12.00
65361;PMS5003;51961;54.960;73.462;2022-09-19T16:29:55;26.00;23.00;12.67
65361;PMS5003;51961;54.960;73.462;2022-09-19T16:33:00;24.67;23.67;14.00
65361;PMS5003;51961;54.960;73.462;2022-09-19T16:36:04;25.00;22.00;14.00
65361;PMS5003;51961;54.960;73.462;2022-09-19T16:45:22;26.50;21.25;15.00
65361;PMS5003;51961;54.960;73.462;2022-09-19T16:48:37;26.00;22.00;14.33
65361;PMS5003;51961;54.960;73.462;2022-09-19T16:51:51;25.00;22.00;14.00
65361;PMS5003;51961;54.960;73.462;2022-09-19T16:54:56;25.75;23.25;14.00
65361;PMS5003;51961;54.960;73.462;2022-09-19T16:58:00;23.00;21.00;12.00
65361;PMS5003;51961;54.960;73.462;2022-09-19T17:01:03;27.67;22.67;12.00
65361;PMS5003;51961;54.960;73.462;2022-09-19T17:04:10;29.67;24.00;13.67
65361;PMS5003;51961;54.960;73.462;2022-09-19T17:07:18;30.00;23.50;15.00
65361;PMS5003;51961;54.960;73.462;2022-09-19T17:10:23;29.00;25.00;16.00
65361;PMS5003;51961;54.960;73.462;2022-09-19T17:13:27;29.50;24.00;17.00
65361;PMS5003;51961;54.960;73.462;2022-09-19T17:16:29;28.00;25.00;15.00
65361;PMS5003;51961;54.960;73.462;2022-09-19T17:19:32;29.00;24.00;15.00
65361;PMS5003;51961;54.960;73.462;2022-09-19T17:22:34;28.50;24.00;16.00
65361;PMS5003;51961;54.960;73.462;2022-09-19T17:25:47;27.50;23.25;15.00
65361;PMS5003;51961;54.960;73.462;2022-09-19T17:28:49;33.50;27.00;16.50
65361;PMS5003;51961;54.960;73.462;2022-09-19T17:32:05;35.00;27.50;17.00
65361;PMS5003;51961;54.960;73.462;2022-09-19T17:35:10;34.50;27.00;18.00
65361;PMS5003;51961;54.960;73.462;2022-09-19T17:38:15;29.25;25.00;17.00
65361;PMS5003;51961;54.960;73.462;2022-09-19T17:41:17;29.00;24.00;15.00
65361;PMS5003;51961;54.960;73.462;2022-09-19T17:44:20;28.50;25.00;15.00
65361;PMS5003;51961;54.960;73.462;2022-09-19T17:47:23;30.00;23.50;15.00
65361;PMS5003;51961;54.960;73.462;2022-09-19T17:50:25;27.25;22.00;15.50
65361;PMS5003;51961;54.960;73.462;2022-09-19T17:53:27;27.00;24.50;16.00
65361;PMS5003;51961;54.960;73.462;2022-09-19T17:56:29;26.25;22.00;15.00
65361;PMS5003;51961;54.960;73.462;2022-09-19T17:59:36;26.50;22.50;15.00
65361;PMS5003;51961;54.960;73.462;2022-09-19T18:02:42;27.75;22.00;16.00
65361;PMS5003;51961;54.960;73.462;2022-09-19T18:06:02;26.50;23.50;15.50
65361;PMS5003;51961;54.960;73.462;2022-09-19T18:09:15;26.50;24.25;15.50
65361;PMS5003;51961;54.960;73.462;2022-09-19T18:12:18;26.50;24.00;14.00
65361;PMS5003;51961;54.960;73.462;2022-09-19T18:15:25;28.25;25.00;15.00
65361;PMS5003;51961;54.960;73.462;2022-09-19T18:18:29;27.50;24.50;15.50
65361;PMS5003;51961;54.960;73.462;2022-09-19T18:21:37;27.00;23.50;15.00
65361;PMS5003;51961;54.960;73.462;2022-09-19T18:24:41;26.00;24.00;16.00
65361;PMS5003;51961;54.960;73.462;2022-09-19T18:27:48;27.00;24.25;16.00
65361;PMS5003;51961;54.960;73.462;2022-09-19T18:31:07;27.00;23.00;15.00
65361;PMS5003;51961;54.960;73.462;2022-09-19T18:34:16;23.00;20.00;13.00
65361;PMS5003;51961;54.960;73.462;2022-09-19T18:37:17;23.00;21.25;13.00
65361;PMS5003;51961;54.960;73.462;2022-09-19T18:40:21;23.00;22.00;12.00
65361;PMS5003;51961;54.960;73.462;2022-09-19T18:43:22;25.00;21.00;13.67
65361;PMS5003;51961;54.960;73.462;2022-09-19T18:46:29;22.00;20.00;13.00
65361;PMS5003;51961;54.960;73.462;2022-09-19T18:49:36;20.67;19.00;11.00
65361;PMS5003;51961;54.960;73.462;2022-09-19T18:52:49;24.00;19.00;9.50
65361;PMS5003;51961;54.960;73.462;2022-09-19T18:55:53;20.00;17.50;9.00
65361;PMS5003;51961;54.960;73.462;2022-09-19T18:58:56;20.00;17.50;8.75
65361;PMS5003;51961;54.960;73.462;2022-09-19T19:01:58;21.67;18.00;7.00
65361;PMS5003;51961;54.960;73.462;2022-09-19T19:05:01;22.00;19.00;8.00
65361;PMS5003;51961;54.960;73.462;2022-09-19T19:08:14;22.00;19.00;8.00
65361;PMS5003;51961;54.960;73.462;2022-09-19T19:11:22;27.00;24.25;15.75
65361;PMS5003;51961;54.960;73.462;2022-09-19T19:14:34;29.00;25.00;17.00
65361;PMS5003;51961;54.960;73.462;2022-09-19T19:17:36;23.50;20.25;15.00
65361;PMS5003;51961;54.960;73.462;2022-09-19T19:20:38;20.00;17.67;13.00
65361;PMS5003;51961;54.960;73.462;2022-09-19T19:23:42;21.00;18.33;12.00
65361;PMS5003;51961;54.960;73.462;2022-09-19T19:26:56;26.00;21.00;15.00
65361;PMS5003;51961;54.960;73.462;2022-09-19T19:29:58;24.00;20.00;15.00
65361;PMS5003;51961;54.960;73.462;2022-09-19T19:33:00;20.00;18.33;11.00
65361;PMS5003;51961;54.960;73.462;2022-09-19T19:39:12;18.00;16.00;7.50
65361;PMS5003;51961;54.960;73.462;2022-09-19T19:42:15;20.25;18.00;9.00
65361;PMS5003;51961;54.960;73.462;2022-09-19T19:45:18;20.00;19.00;10.00
65361;PMS5003;51961;54.960;73.462;2022-09-19T19:48:25;18.00;17.00;8.00
65361;PMS5003;51961;54.960;73.462;2022-09-19T19:51:34;19.00;16.25;6.00
65361;PMS5003;51961;54.960;73.462;2022-09-19T19:54:47;21.00;18.50;8.00
65361;PMS5003;51961;54.960;73.462;2022-09-19T19:57:50;21.00;17.50;10.00
65361;PMS5003;51961;54.960;73.462;2022-09-19T20:01:27;21.00;17.00;9.00
65361;PMS5003;51961;54.960;73.462;2022-09-19T20:04:27;19.25;17.00;7.00
65361;PMS5003;51961;54.960;73.462;2022-09-19T20:07:28;20.67;17.00;7.67
65361;PMS5003;51961;54.960;73.462;2022-09-19T20:10:36;24.75;19.00;9.00
65361;PMS5003;51961;54.960;73.462;2022-09-19T20:13:38;24.00;17.33;7.00
65361;PMS5003;51961;54.960;73.462;2022-09-19T20:16:43;24.00;19.00;9.75
65361;PMS5003;51961;54.960;73.462;2022-09-19T20:19:52;19.00;17.00;8.00
65361;PMS5003;51961;54.960;73.462;2022-09-19T20:22:55;16.25;14.00;5.00
65361;PMS5003;51961;54.960;73.462;2022-09-19T20:25:57;16.00;11.50;4.25
65361;PMS5003;51961;54.960;73.462;2022-09-19T20:29:00;15.25;10.00;5.00
65361;PMS5003;51961;54.960;73.462;2022-09-19T20:32:02;18.25;11.00;5.00